sensor_id;sensor_type;location;lat;lon;timestamp;temperature;humidity
6843;DHT22;3460;52.028;8.916;2023-05-29T00:02:02;13.20;99.90
6843;DHT22;3460;52.028;8.916;2023-05-29T00:04:28;13.20;99.90
6843;DHT22;3460;52.028;8.916;2023-05-29T00:06:55;13.10;99.90
6843;DHT22;3460;52.028;8.916;2023-05-29T00:09:22;13.00;99.90
6843;DHT22;3460;52.028;8.916;2023-05-29T00:11:49;13.00;99.90
6843;DHT22;3460;52.028;8.916;2023-05-29T00:14:19;12.90;99.90
6843;DHT22;3460;52.028;8.916;2023-05-29T00:16:48;12.90;99.90
6843;DHT22;3460;52.028;8.916;2023-05-29T00:19:15;12.80;99.90
6843;DHT22;3460;52.028;8.916;2023-05-29T00:21:43;12.80;99.90
6843;DHT22;3460;52.028;8.916;2023-05-29T00:24:13;12.80;99.90
6843;DHT22;3460;52.028;8.916;2023-05-29T00:26:40;12.80;99.90
6843;DHT22;3460;52.028;8.916;2023-05-29T00:29:06;12.80;99.90
6843;DHT22;3460;52.028;8.916;2023-05-29T00:31:35;12.70;99.90
6843;DHT22;3460;52.028;8.916;2023-05-29T00:34:02;12.70;99.90
6843;DHT22;3460;52.028;8.916;2023-05-29T00:36:29;12.60;99.90
6843;DHT22;3460;52.028;8.916;2023-05-29T00:38:57;12.60;99.90
6843;DHT22;3460;52.028;8.916;2023-05-29T00:41:24;12.60;99.90
6843;DHT22;3460;52.028;8.916;2023-05-29T00:43:50;12.60;99.90
6843;DHT22;3460;52.028;8.916;2023-05-29T00:46:17;12.50;99.90
6843;DHT22;3460;52.028;8.916;2023-05-29T00:48:47;12.40;99.90
6843;DHT22;3460;52.028;8.916;2023-05-29T00:51:15;12.40;99.90
6843;DHT22;3460;52.028;8.916;2023-05-29T00:53:43;12.30;99.90
6843;DHT22;3460;52.028;8.916;2023-05-29T00:56:11;12.30;99.90
6843;DHT22;3460;52.028;8.916;2023-05-29T00:58:38;12.10;99.90
6843;DHT22;3460;52.028;8.916;2023-05-29T01:01:05;12.10;99.90
6843;DHT22;3460;52.028;8.916;2023-05-29T01:03:32;12.00;99.90
6843;DHT22;3460;52.028;8.916;2023-05-29T01:06:00;12.00;99.90
6843;DHT22;3460;52.028;8.916;2023-05-29T01:08:28;11.90;99.90
6843;DHT22;3460;52.028;8.916;2023-05-29T01:11:01;11.90;99.90
6843;DHT22;3460;52.028;8.916;2023-05-29T01:13:31;11.90;99.90
6843;DHT22;3460;52.028;8.916;2023-05-29T01:16:08;11.80;99.90
6843;DHT22;3460;52.028;8.916;2023-05-29T01:18:43;11.80;99.90
6843;DHT22;3460;52.028;8.916;2023-05-29T01:21:20;11.80;99.90
6843;DHT22;3460;52.028;8.916;2023-05-29T01:24:03;11.80;99.90
6843;DHT22;3460;52.028;8.916;2023-05-29T01:26:47;11.70;99.90
6843;DHT22;3460;52.028;8.916;2023-05-29T01:29:18;11.70;99.90
6843;DHT22;3460;52.028;8.916;2023-05-29T01:31:46;11.60;99.90
6843;DHT22;3460;52.028;8.916;2023-05-29T01:34:13;11.60;99.90
6843;DHT22;3460;52.028;8.916;2023-05-29T01:36:40;11.60;99.90
6843;DHT22;3460;52.028;8.916;2023-05-29T01:39:07;11.60;99.90
6843;DHT22;3460;52.028;8.916;2023-05-29T01:41:35;11.60;99.90
6843;DHT22;3460;52.028;8.916;2023-05-29T01:44:05;11.50;99.90
6843;DHT22;3460;52.028;8.916;2023-05-29T01:46:34;11.50;99.90
6843;DHT22;3460;52.028;8.916;2023-05-29T01:49:01;11.50;99.90
6843;DHT22;3460;52.028;8.916;2023-05-29T01:51:28;11.50;99.90
6843;DHT22;3460;52.028;8.916;2023-05-29T01:53:57;11.40;99.90
6843;DHT22;3460;52.028;8.916;2023-05-29T01:56:27;11.40;99.90
6843;DHT22;3460;52.028;8.916;2023-05-29T01:58:54;11.50;99.90
6843;DHT22;3460;52.028;8.916;2023-05-29T02:01:24;11.40;99.90
6843;DHT22;3460;52.028;8.916;2023-05-29T02:03:51;11.40;99.90
6843;DHT22;3460;52.028;8.916;2023-05-29T02:06:18;11.30;99.90
6843;DHT22;3460;52.028;8.916;2023-05-29T02:08:46;11.30;99.90
6843;DHT22;3460;52.028;8.916;2023-05-29T02:11:12;11.30;99.90
6843;DHT22;3460;52.028;8.916;2023-05-29T02:13:39;11.20;99.90
6843;DHT22;3460;52.028;8.916;2023-05-29T02:16:06;11.10;99.90
6843;DHT22;3460;52.028;8.916;2023-05-29T02:18:34;11.10;99.90
6843;DHT22;3460;52.028;8.916;2023-05-29T02:21:02;11.10;99.90
6843;DHT22;3460;52.028;8.916;2023-05-29T02:23:28;11.00;99.90
6843;DHT22;3460;52.028;8.916;2023-05-29T02:25:55;11.00;99.90
6843;DHT22;3460;52.028;8.916;2023-05-29T02:28:22;11.00;99.90
6843;DHT22;3460;52.028;8.916;2023-05-29T02:30:49;10.90;99.90
6843;DHT22;3460;52.028;8.916;2023-05-29T02:33:16;10.90;99.90
6843;DHT22;3460;52.028;8.916;2023-05-29T02:35:44;10.90;99.90
6843;DHT22;3460;52.028;8.916;2023-05-29T02:38:11;10.80;99.90
6843;DHT22;3460;52.028;8.916;2023-05-29T02:40:38;10.90;99.90
6843;DHT22;3460;52.028;8.916;2023-05-29T02:43:05;10.90;99.90
6843;DHT22;3460;52.028;8.916;2023-05-29T02:45:32;10.80;99.90
6843;DHT22;3460;52.028;8.916;2023-05-29T02:47:59;10.80;99.90
6843;DHT22;3460;52.028;8.916;2023-05-29T02:50:26;10.70;99.90
6843;DHT22;3460;52.028;8.916;2023-05-29T02:52:54;10.70;99.90
6843;DHT22;3460;52.028;8.916;2023-05-29T02:55:21;10.80;99.90
6843;DHT22;3460;52.028;8.916;2023-05-29T02:57:48;10.70;99.90
6843;DHT22;3460;52.028;8.916;2023-05-29T03:00:18;10.70;99.90
6843;DHT22;3460;52.028;8.916;2023-05-29T03:02:46;10.80;99.90
6843;DHT22;3460;52.028;8.916;2023-05-29T03:05:13;10.70;99.90
6843;DHT22;3460;52.028;8.916;2023-05-29T03:07:41;10.60;99.90
6843;DHT22;3460;52.028;8.916;2023-05-29T03:10:09;10.50;99.90
6843;DHT22;3460;52.028;8.916;2023-05-29T03:12:37;10.50;99.90
6843;DHT22;3460;52.028;8.916;2023-05-29T03:15:05;10.40;99.90
6843;DHT22;3460;52.028;8.916;2023-05-29T03:17:33;10.40;99.90
6843;DHT22;3460;52.028;8.916;2023-05-29T03:20:02;10.40;99.90
6843;DHT22;3460;52.028;8.916;2023-05-29T03:22:31;10.40;99.90
6843;DHT22;3460;52.028;8.916;2023-05-29T03:24:58;10.40;99.90
6843;DHT22;3460;52.028;8.916;2023-05-29T03:27:26;10.40;99.90
6843;DHT22;3460;52.028;8.916;2023-05-29T03:29:54;10.30;99.90
6843;DHT22;3460;52.028;8.916;2023-05-29T03:32:21;10.30;99.90
6843;DHT22;3460;52.028;8.916;2023-05-29T03:34:48;10.40;99.90
6843;DHT22;3460;52.028;8.916;2023-05-29T03:37:15;10.40;99.90
6843;DHT22;3460;52.028;8.916;2023-05-29T03:39:42;10.40;99.90
6843;DHT22;3460;52.028;8.916;2023-05-29T03:42:08;10.40;99.90
6843;DHT22;3460;52.028;8.916;2023-05-29T03:44:37;10.40;99.90
6843;DHT22;3460;52.028;8.916;2023-05-29T03:47:04;10.50;99.90
6843;DHT22;3460;52.028;8.916;2023-05-29T03:49:30;10.40;99.90
6843;DHT22;3460;52.028;8.916;2023-05-29T03:51:57;10.40;99.90
6843;DHT22;3460;52.028;8.916;2023-05-29T03:54:24;10.40;99.90
6843;DHT22;3460;52.028;8.916;2023-05-29T03:56:51;10.50;99.90
6843;DHT22;3460;52.028;8.916;2023-05-29T03:59:18;10.50;99.90
6843;DHT22;3460;52.028;8.916;2023-05-29T04:01:46;10.50;99.90
6843;DHT22;3460;52.028;8.916;2023-05-29T04:04:13;10.50;99.90
6843;DHT22;3460;52.028;8.916;2023-05-29T04:06:40;10.50;99.90
6843;DHT22;3460;52.028;8.916;2023-05-29T04:09:07;10.50;99.90
6843;DHT22;3460;52.028;8.916;2023-05-29T04:11:34;10.60;99.90
6843;DHT22;3460;52.028;8.916;2023-05-29T04:14:01;10.50;99.90
6843;DHT22;3460;52.028;8.916;2023-05-29T04:16:28;10.60;99.90
6843;DHT22;3460;52.028;8.916;2023-05-29T04:18:56;10.60;99.90
6843;DHT22;3460;52.028;8.916;2023-05-29T04:21:23;10.60;99.90
6843;DHT22;3460;52.028;8.916;2023-05-29T04:23:50;10.60;99.90
6843;DHT22;3460;52.028;8.916;2023-05-29T04:26:17;10.60;99.90
6843;DHT22;3460;52.028;8.916;2023-05-29T04:28:44;10.70;99.90
6843;DHT22;3460;52.028;8.916;2023-05-29T04:31:11;10.90;99.90
6843;DHT22;3460;52.028;8.916;2023-05-29T04:33:39;11.10;99.90
6843;DHT22;3460;52.028;8.916;2023-05-29T04:36:08;11.20;99.90
6843;DHT22;3460;52.028;8.916;2023-05-29T04:38:36;11.40;99.90
6843;DHT22;3460;52.028;8.916;2023-05-29T04:41:03;11.40;99.90
6843;DHT22;3460;52.028;8.916;2023-05-29T04:43:30;11.50;99.90
6843;DHT22;3460;52.028;8.916;2023-05-29T04:45:57;11.60;99.90
6843;DHT22;3460;52.028;8.916;2023-05-29T04:48:25;11.60;99.90
6843;DHT22;3460;52.028;8.916;2023-05-29T04:50:52;11.60;99.90
6843;DHT22;3460;52.028;8.916;2023-05-29T04:53:20;11.70;99.90
6843;DHT22;3460;52.028;8.916;2023-05-29T04:55:49;11.70;99.90
6843;DHT22;3460;52.028;8.916;2023-05-29T04:58:16;11.90;99.90
6843;DHT22;3460;52.028;8.916;2023-05-29T05:00:43;11.90;99.90
6843;DHT22;3460;52.028;8.916;2023-05-29T05:03:10;11.80;99.90
6843;DHT22;3460;52.028;8.916;2023-05-29T05:05:36;11.70;99.90
6843;DHT22;3460;52.028;8.916;2023-05-29T05:08:03;11.70;99.90
6843;DHT22;3460;52.028;8.916;2023-05-29T05:10:31;11.70;99.90
6843;DHT22;3460;52.028;8.916;2023-05-29T05:12:58;11.60;99.90
6843;DHT22;3460;52.028;8.916;2023-05-29T05:15:28;11.70;99.90
6843;DHT22;3460;52.028;8.916;2023-05-29T05:17:55;11.80;99.90
6843;DHT22;3460;52.028;8.916;2023-05-29T05:20:21;12.00;99.90
6843;DHT22;3460;52.028;8.916;2023-05-29T05:22:48;11.90;99.90
6843;DHT22;3460;52.028;8.916;2023-05-29T05:25:15;11.90;99.90
6843;DHT22;3460;52.028;8.916;2023-05-29T05:27:44;12.10;99.90
6843;DHT22;3460;52.028;8.916;2023-05-29T05:30:12;12.20;99.90
6843;DHT22;3460;52.028;8.916;2023-05-29T05:32:39;12.20;99.90
6843;DHT22;3460;52.028;8.916;2023-05-29T05:35:06;12.20;99.90
6843;DHT22;3460;52.028;8.916;2023-05-29T05:37:34;12.30;99.90
6843;DHT22;3460;52.028;8.916;2023-05-29T05:40:01;12.30;99.90
6843;DHT22;3460;52.028;8.916;2023-05-29T05:42:29;12.40;99.90
6843;DHT22;3460;52.028;8.916;2023-05-29T05:44:57;12.50;99.90
6843;DHT22;3460;52.028;8.916;2023-05-29T05:47:24;12.60;99.90
6843;DHT22;3460;52.028;8.916;2023-05-29T05:49:53;12.60;99.90
6843;DHT22;3460;52.028;8.916;2023-05-29T05:52:20;12.50;99.90
6843;DHT22;3460;52.028;8.916;2023-05-29T05:54:47;12.60;99.90
6843;DHT22;3460;52.028;8.916;2023-05-29T05:57:13;12.60;99.90
6843;DHT22;3460;52.028;8.916;2023-05-29T05:59:40;12.70;99.90
6843;DHT22;3460;52.028;8.916;2023-05-29T06:02:08;12.70;99.90
6843;DHT22;3460;52.028;8.916;2023-05-29T06:04:35;12.60;99.90
6843;DHT22;3460;52.028;8.916;2023-05-29T06:07:02;12.60;99.90
6843;DHT22;3460;52.028;8.916;2023-05-29T06:09:29;12.50;99.90
6843;DHT22;3460;52.028;8.916;2023-05-29T06:11:56;12.50;99.90
6843;DHT22;3460;52.028;8.916;2023-05-29T06:14:23;12.60;99.90
6843;DHT22;3460;52.028;8.916;2023-05-29T06:16:50;12.60;99.90
6843;DHT22;3460;52.028;8.916;2023-05-29T06:19:18;12.70;99.90
6843;DHT22;3460;52.028;8.916;2023-05-29T06:21:46;12.70;99.90
6843;DHT22;3460;52.028;8.916;2023-05-29T06:24:12;12.70;99.90
6843;DHT22;3460;52.028;8.916;2023-05-29T06:26:39;12.80;99.90
6843;DHT22;3460;52.028;8.916;2023-05-29T06:29:06;12.80;99.90
6843;DHT22;3460;52.028;8.916;2023-05-29T06:31:33;12.80;99.90
6843;DHT22;3460;52.028;8.916;2023-05-29T06:34:00;12.90;99.90
6843;DHT22;3460;52.028;8.916;2023-05-29T06:36:28;13.00;99.90
6843;DHT22;3460;52.028;8.916;2023-05-29T06:38:58;13.00;99.90
6843;DHT22;3460;52.028;8.916;2023-05-29T06:41:25;13.00;99.90
6843;DHT22;3460;52.028;8.916;2023-05-29T06:43:51;13.00;99.90
6843;DHT22;3460;52.028;8.916;2023-05-29T06:46:18;13.10;99.90
6843;DHT22;3460;52.028;8.916;2023-05-29T06:48:45;13.10;99.90
6843;DHT22;3460;52.028;8.916;2023-05-29T06:51:12;13.20;99.90
6843;DHT22;3460;52.028;8.916;2023-05-29T06:53:41;13.20;99.90
6843;DHT22;3460;52.028;8.916;2023-05-29T06:56:07;13.20;99.90
6843;DHT22;3460;52.028;8.916;2023-05-29T06:58:34;13.30;99.90
6843;DHT22;3460;52.028;8.916;2023-05-29T07:01:02;13.30;99.90
6843;DHT22;3460;52.028;8.916;2023-05-29T07:03:28;13.20;99.90
6843;DHT22;3460;52.028;8.916;2023-05-29T07:05:55;13.00;99.90
6843;DHT22;3460;52.028;8.916;2023-05-29T07:08:22;12.90;99.90
6843;DHT22;3460;52.028;8.916;2023-05-29T07:10:51;12.90;99.90
6843;DHT22;3460;52.028;8.916;2023-05-29T07:13:18;13.00;99.90
6843;DHT22;3460;52.028;8.916;2023-05-29T07:15:45;12.90;99.90
6843;DHT22;3460;52.028;8.916;2023-05-29T07:18:12;12.90;99.90
6843;DHT22;3460;52.028;8.916;2023-05-29T07:20:39;13.00;99.90
6843;DHT22;3460;52.028;8.916;2023-05-29T07:23:06;12.90;99.90
6843;DHT22;3460;52.028;8.916;2023-05-29T07:25:33;12.90;99.90
6843;DHT22;3460;52.028;8.916;2023-05-29T07:28:01;12.90;99.90
6843;DHT22;3460;52.028;8.916;2023-05-29T07:30:27;13.10;99.90
6843;DHT22;3460;52.028;8.916;2023-05-29T07:32:55;13.10;99.90
6843;DHT22;3460;52.028;8.916;2023-05-29T07:35:22;13.10;99.90
6843;DHT22;3460;52.028;8.916;2023-05-29T07:37:48;13.10;99.90
6843;DHT22;3460;52.028;8.916;2023-05-29T07:40:18;13.20;99.90
6843;DHT22;3460;52.028;8.916;2023-05-29T07:42:44;13.30;99.90
6843;DHT22;3460;52.028;8.916;2023-05-29T07:45:13;13.50;99.90
6843;DHT22;3460;52.028;8.916;2023-05-29T07:47:40;13.70;99.90
6843;DHT22;3460;52.028;8.916;2023-05-29T07:50:07;13.80;99.90
6843;DHT22;3460;52.028;8.916;2023-05-29T07:52:34;13.80;99.90
6843;DHT22;3460;52.028;8.916;2023-05-29T07:55:01;13.90;99.90
6843;DHT22;3460;52.028;8.916;2023-05-29T07:57:28;14.00;99.90
6843;DHT22;3460;52.028;8.916;2023-05-29T07:59:56;14.30;99.90
6843;DHT22;3460;52.028;8.916;2023-05-29T08:02:24;14.50;99.90
6843;DHT22;3460;52.028;8.916;2023-05-29T08:04:51;14.50;99.90
6843;DHT22;3460;52.028;8.916;2023-05-29T08:07:18;14.60;99.90
6843;DHT22;3460;52.028;8.916;2023-05-29T08:09:45;14.90;99.90
6843;DHT22;3460;52.028;8.916;2023-05-29T08:12:12;15.10;99.90
6843;DHT22;3460;52.028;8.916;2023-05-29T08:14:39;15.10;99.90
6843;DHT22;3460;52.028;8.916;2023-05-29T08:17:06;15.40;99.90
6843;DHT22;3460;52.028;8.916;2023-05-29T08:19:34;15.30;99.90
6843;DHT22;3460;52.028;8.916;2023-05-29T08:22:01;15.30;99.90
6843;DHT22;3460;52.028;8.916;2023-05-29T08:24:28;15.10;99.90
6843;DHT22;3460;52.028;8.916;2023-05-29T08:26:54;15.20;99.90
6843;DHT22;3460;52.028;8.916;2023-05-29T08:29:21;15.40;99.90
6843;DHT22;3460;52.028;8.916;2023-05-29T08:31:48;15.40;99.90
6843;DHT22;3460;52.028;8.916;2023-05-29T08:34:15;15.50;99.90
6843;DHT22;3460;52.028;8.916;2023-05-29T08:36:43;15.80;99.90
6843;DHT22;3460;52.028;8.916;2023-05-29T08:39:10;15.90;99.90
6843;DHT22;3460;52.028;8.916;2023-05-29T08:41:41;16.00;99.90
6843;DHT22;3460;52.028;8.916;2023-05-29T08:44:13;16.00;99.90
6843;DHT22;3460;52.028;8.916;2023-05-29T08:46:41;15.90;99.90
6843;DHT22;3460;52.028;8.916;2023-05-29T08:49:11;16.00;99.90
6843;DHT22;3460;52.028;8.916;2023-05-29T08:51:40;16.20;99.90
6843;DHT22;3460;52.028;8.916;2023-05-29T08:54:12;16.30;99.90
6843;DHT22;3460;52.028;8.916;2023-05-29T08:56:41;16.10;99.90
6843;DHT22;3460;52.028;8.916;2023-05-29T08:59:08;16.20;99.90
6843;DHT22;3460;52.028;8.916;2023-05-29T09:01:35;16.20;99.90
6843;DHT22;3460;52.028;8.916;2023-05-29T09:04:04;16.30;99.90
6843;DHT22;3460;52.028;8.916;2023-05-29T09:06:31;16.30;99.90
6843;DHT22;3460;52.028;8.916;2023-05-29T09:08:59;15.90;99.90
6843;DHT22;3460;52.028;8.916;2023-05-29T09:11:27;16.00;99.90
6843;DHT22;3460;52.028;8.916;2023-05-29T09:13:54;15.90;99.90
6843;DHT22;3460;52.028;8.916;2023-05-29T09:16:22;16.00;99.90
6843;DHT22;3460;52.028;8.916;2023-05-29T09:18:49;16.00;99.90
6843;DHT22;3460;52.028;8.916;2023-05-29T09:21:26;16.10;99.90
6843;DHT22;3460;52.028;8.916;2023-05-29T09:23:56;16.30;99.90
6843;DHT22;3460;52.028;8.916;2023-05-29T09:26:31;16.30;99.90
6843;DHT22;3460;52.028;8.916;2023-05-29T09:28:58;16.40;99.90
6843;DHT22;3460;52.028;8.916;2023-05-29T09:31:24;16.50;99.90
6843;DHT22;3460;52.028;8.916;2023-05-29T09:33:51;16.70;99.90
6843;DHT22;3460;52.028;8.916;2023-05-29T09:36:21;16.80;99.90
6843;DHT22;3460;52.028;8.916;2023-05-29T09:38:48;16.90;99.90
6843;DHT22;3460;52.028;8.916;2023-05-29T09:41:20;16.80;99.90
6843;DHT22;3460;52.028;8.916;2023-05-29T09:43:50;16.70;99.90
6843;DHT22;3460;52.028;8.916;2023-05-29T09:46:19;16.70;99.90
6843;DHT22;3460;52.028;8.916;2023-05-29T09:48:46;16.90;99.90
6843;DHT22;3460;52.028;8.916;2023-05-29T09:51:20;17.00;99.90
6843;DHT22;3460;52.028;8.916;2023-05-29T09:53:48;17.20;99.90
6843;DHT22;3460;52.028;8.916;2023-05-29T09:56:17;17.00;99.90
6843;DHT22;3460;52.028;8.916;2023-05-29T09:58:44;16.90;99.90
6843;DHT22;3460;52.028;8.916;2023-05-29T10:01:14;17.00;99.90
6843;DHT22;3460;52.028;8.916;2023-05-29T10:03:42;16.70;99.90
6843;DHT22;3460;52.028;8.916;2023-05-29T10:06:10;16.90;99.90
6843;DHT22;3460;52.028;8.916;2023-05-29T10:08:43;16.90;99.90
6843;DHT22;3460;52.028;8.916;2023-05-29T10:11:11;17.00;99.90
6843;DHT22;3460;52.028;8.916;2023-05-29T10:13:42;17.00;99.90
6843;DHT22;3460;52.028;8.916;2023-05-29T10:16:15;17.20;99.90
6843;DHT22;3460;52.028;8.916;2023-05-29T10:18:44;17.10;99.90
6843;DHT22;3460;52.028;8.916;2023-05-29T10:21:15;17.20;99.90
6843;DHT22;3460;52.028;8.916;2023-05-29T10:23:45;17.30;99.90
6843;DHT22;3460;52.028;8.916;2023-05-29T10:26:16;17.40;99.90
6843;DHT22;3460;52.028;8.916;2023-05-29T10:28:52;17.60;99.90
6843;DHT22;3460;52.028;8.916;2023-05-29T10:31:26;17.60;99.90
6843;DHT22;3460;52.028;8.916;2023-05-29T10:34:04;17.70;99.90
6843;DHT22;3460;52.028;8.916;2023-05-29T10:36:37;17.90;99.90
6843;DHT22;3460;52.028;8.916;2023-05-29T10:39:05;17.90;99.90
6843;DHT22;3460;52.028;8.916;2023-05-29T10:41:33;17.80;99.90
6843;DHT22;3460;52.028;8.916;2023-05-29T10:44:39;18.00;99.90
6843;DHT22;3460;52.028;8.916;2023-05-29T10:47:09;18.10;99.90
6843;DHT22;3460;52.028;8.916;2023-05-29T10:49:37;17.80;99.90
6843;DHT22;3460;52.028;8.916;2023-05-29T10:52:05;17.50;99.90
6843;DHT22;3460;52.028;8.916;2023-05-29T10:54:49;17.50;99.90
6843;DHT22;3460;52.028;8.916;2023-05-29T10:57:17;17.60;99.90
6843;DHT22;3460;52.028;8.916;2023-05-29T10:59:46;17.60;99.90
6843;DHT22;3460;52.028;8.916;2023-05-29T11:02:18;17.60;99.90
6843;DHT22;3460;52.028;8.916;2023-05-29T11:05:20;17.70;99.90
6843;DHT22;3460;52.028;8.916;2023-05-29T11:07:57;17.30;99.90
6843;DHT22;3460;52.028;8.916;2023-05-29T11:10:44;17.00;99.90
6843;DHT22;3460;52.028;8.916;2023-05-29T11:13:23;17.00;99.90
6843;DHT22;3460;52.028;8.916;2023-05-29T11:16:19;17.00;99.90
6843;DHT22;3460;52.028;8.916;2023-05-29T11:18:47;16.90;99.90
6843;DHT22;3460;52.028;8.916;2023-05-29T11:21:30;17.20;99.90
6843;DHT22;3460;52.028;8.916;2023-05-29T11:23:59;17.30;99.90
6843;DHT22;3460;52.028;8.916;2023-05-29T11:26:29;17.50;99.90
6843;DHT22;3460;52.028;8.916;2023-05-29T11:28:58;17.70;99.90
6843;DHT22;3460;52.028;8.916;2023-05-29T11:31:27;17.90;99.90
6843;DHT22;3460;52.028;8.916;2023-05-29T11:33:59;18.10;99.90
6843;DHT22;3460;52.028;8.916;2023-05-29T11:36:26;17.80;99.90
6843;DHT22;3460;52.028;8.916;2023-05-29T11:38:53;17.70;99.90
6843;DHT22;3460;52.028;8.916;2023-05-29T11:41:20;17.60;99.90
6843;DHT22;3460;52.028;8.916;2023-05-29T11:43:56;17.60;99.90
6843;DHT22;3460;52.028;8.916;2023-05-29T11:46:25;17.70;99.90
6843;DHT22;3460;52.028;8.916;2023-05-29T11:48:53;17.90;99.90
6843;DHT22;3460;52.028;8.916;2023-05-29T11:51:20;18.20;99.90
6843;DHT22;3460;52.028;8.916;2023-05-29T11:53:48;18.40;99.90
6843;DHT22;3460;52.028;8.916;2023-05-29T11:56:15;18.60;99.90
6843;DHT22;3460;52.028;8.916;2023-05-29T11:58:42;18.90;99.90
6843;DHT22;3460;52.028;8.916;2023-05-29T12:01:09;19.00;99.90
6843;DHT22;3460;52.028;8.916;2023-05-29T12:03:41;19.20;99.90
6843;DHT22;3460;52.028;8.916;2023-05-29T12:06:09;19.10;99.90
6843;DHT22;3460;52.028;8.916;2023-05-29T12:08:36;19.00;99.90
6843;DHT22;3460;52.028;8.916;2023-05-29T12:11:04;18.80;99.90
6843;DHT22;3460;52.028;8.916;2023-05-29T12:13:31;18.60;99.90
6843;DHT22;3460;52.028;8.916;2023-05-29T12:16:01;18.40;99.90
6843;DHT22;3460;52.028;8.916;2023-05-29T12:18:29;18.60;99.90
6843;DHT22;3460;52.028;8.916;2023-05-29T12:21:01;18.80;99.90
6843;DHT22;3460;52.028;8.916;2023-05-29T12:23:29;19.10;99.90
6843;DHT22;3460;52.028;8.916;2023-05-29T12:25:58;19.30;99.90
6843;DHT22;3460;52.028;8.916;2023-05-29T12:28:25;19.40;99.90
6843;DHT22;3460;52.028;8.916;2023-05-29T12:30:58;19.50;99.90
6843;DHT22;3460;52.028;8.916;2023-05-29T12:33:27;19.40;99.90
6843;DHT22;3460;52.028;8.916;2023-05-29T12:36:00;19.30;99.90
6843;DHT22;3460;52.028;8.916;2023-05-29T12:38:28;18.90;99.90
6843;DHT22;3460;52.028;8.916;2023-05-29T12:40:55;18.70;99.90
6843;DHT22;3460;52.028;8.916;2023-05-29T12:43:22;19.00;99.90
6843;DHT22;3460;52.028;8.916;2023-05-29T12:45:54;19.20;99.90
6843;DHT22;3460;52.028;8.916;2023-05-29T12:48:26;19.30;99.90
6843;DHT22;3460;52.028;8.916;2023-05-29T12:50:53;18.90;99.90
6843;DHT22;3460;52.028;8.916;2023-05-29T12:53:20;18.90;99.90
6843;DHT22;3460;52.028;8.916;2023-05-29T12:55:48;18.90;99.90
6843;DHT22;3460;52.028;8.916;2023-05-29T12:58:15;19.20;99.90
6843;DHT22;3460;52.028;8.916;2023-05-29T13:00:43;19.40;99.90
6843;DHT22;3460;52.028;8.916;2023-05-29T13:03:11;19.70;99.90
6843;DHT22;3460;52.028;8.916;2023-05-29T13:05:38;19.60;99.90
6843;DHT22;3460;52.028;8.916;2023-05-29T13:08:05;19.10;99.90
6843;DHT22;3460;52.028;8.916;2023-05-29T13:10:32;18.90;99.90
6843;DHT22;3460;52.028;8.916;2023-05-29T13:13:01;18.90;99.90
6843;DHT22;3460;52.028;8.916;2023-05-29T13:15:28;18.70;99.90
6843;DHT22;3460;52.028;8.916;2023-05-29T13:17:55;18.90;99.90
6843;DHT22;3460;52.028;8.916;2023-05-29T13:20:22;18.80;99.90
6843;DHT22;3460;52.028;8.916;2023-05-29T13:22:49;18.80;99.90
6843;DHT22;3460;52.028;8.916;2023-05-29T13:25:17;18.60;99.90
6843;DHT22;3460;52.028;8.916;2023-05-29T13:27:47;18.80;99.90
6843;DHT22;3460;52.028;8.916;2023-05-29T13:30:16;18.80;99.90
6843;DHT22;3460;52.028;8.916;2023-05-29T13:32:43;19.10;99.90
6843;DHT22;3460;52.028;8.916;2023-05-29T13:35:10;19.40;99.90
6843;DHT22;3460;52.028;8.916;2023-05-29T13:37:38;19.00;99.90
6843;DHT22;3460;52.028;8.916;2023-05-29T13:40:06;18.80;99.90
6843;DHT22;3460;52.028;8.916;2023-05-29T13:42:34;18.80;99.90
6843;DHT22;3460;52.028;8.916;2023-05-29T13:45:01;18.90;99.90
6843;DHT22;3460;52.028;8.916;2023-05-29T13:47:30;19.00;99.90
6843;DHT22;3460;52.028;8.916;2023-05-29T13:49:58;19.20;99.90
6843;DHT22;3460;52.028;8.916;2023-05-29T13:52:25;19.50;99.90
6843;DHT22;3460;52.028;8.916;2023-05-29T13:54:52;19.60;99.90
6843;DHT22;3460;52.028;8.916;2023-05-29T13:57:19;19.50;99.90
6843;DHT22;3460;52.028;8.916;2023-05-29T13:59:45;19.70;99.90
6843;DHT22;3460;52.028;8.916;2023-05-29T14:02:12;19.70;99.90
6843;DHT22;3460;52.028;8.916;2023-05-29T14:04:40;19.50;99.90
6843;DHT22;3460;52.028;8.916;2023-05-29T14:07:08;19.30;99.90
6843;DHT22;3460;52.028;8.916;2023-05-29T14:09:34;19.40;99.90
6843;DHT22;3460;52.028;8.916;2023-05-29T14:12:01;19.10;99.90
6843;DHT22;3460;52.028;8.916;2023-05-29T14:14:28;19.40;99.90
6843;DHT22;3460;52.028;8.916;2023-05-29T14:16:55;19.50;99.90
6843;DHT22;3460;52.028;8.916;2023-05-29T14:19:22;19.40;99.90
6843;DHT22;3460;52.028;8.916;2023-05-29T14:21:51;19.40;99.90
6843;DHT22;3460;52.028;8.916;2023-05-29T14:24:18;19.60;99.90
6843;DHT22;3460;52.028;8.916;2023-05-29T14:26:45;19.60;99.90
6843;DHT22;3460;52.028;8.916;2023-05-29T14:29:13;19.50;99.90
6843;DHT22;3460;52.028;8.916;2023-05-29T14:31:40;19.50;99.90
6843;DHT22;3460;52.028;8.916;2023-05-29T14:34:07;19.30;99.90
6843;DHT22;3460;52.028;8.916;2023-05-29T14:36:34;19.10;99.90
6843;DHT22;3460;52.028;8.916;2023-05-29T14:39:03;19.00;99.90
6843;DHT22;3460;52.028;8.916;2023-05-29T14:41:31;19.20;99.90
6843;DHT22;3460;52.028;8.916;2023-05-29T14:43:59;19.40;99.90
6843;DHT22;3460;52.028;8.916;2023-05-29T14:46:26;19.60;99.90
6843;DHT22;3460;52.028;8.916;2023-05-29T14:48:56;19.50;99.90
6843;DHT22;3460;52.028;8.916;2023-05-29T14:51:23;19.30;99.90
6843;DHT22;3460;52.028;8.916;2023-05-29T14:53:50;19.10;99.90
6843;DHT22;3460;52.028;8.916;2023-05-29T14:56:19;19.30;99.90
6843;DHT22;3460;52.028;8.916;2023-05-29T14:58:45;19.40;99.90
6843;DHT22;3460;52.028;8.916;2023-05-29T15:01:13;19.10;99.90
6843;DHT22;3460;52.028;8.916;2023-05-29T15:03:40;19.00;99.90
6843;DHT22;3460;52.028;8.916;2023-05-29T15:06:09;19.00;99.90
6843;DHT22;3460;52.028;8.916;2023-05-29T15:08:37;19.10;99.90
6843;DHT22;3460;52.028;8.916;2023-05-29T15:11:05;19.30;99.90
6843;DHT22;3460;52.028;8.916;2023-05-29T15:13:34;19.40;99.90
6843;DHT22;3460;52.028;8.916;2023-05-29T15:16:01;19.50;99.90
6843;DHT22;3460;52.028;8.916;2023-05-29T15:18:28;19.70;99.90
6843;DHT22;3460;52.028;8.916;2023-05-29T15:20:55;19.60;99.90
6843;DHT22;3460;52.028;8.916;2023-05-29T15:23:24;19.60;99.90
6843;DHT22;3460;52.028;8.916;2023-05-29T15:25:51;19.50;99.90
6843;DHT22;3460;52.028;8.916;2023-05-29T15:28:18;19.60;99.90
6843;DHT22;3460;52.028;8.916;2023-05-29T15:30:47;19.20;99.90
6843;DHT22;3460;52.028;8.916;2023-05-29T15:33:14;18.90;99.90
6843;DHT22;3460;52.028;8.916;2023-05-29T15:35:40;18.90;99.90
6843;DHT22;3460;52.028;8.916;2023-05-29T15:38:08;19.00;99.90
6843;DHT22;3460;52.028;8.916;2023-05-29T15:40:36;19.20;99.90
6843;DHT22;3460;52.028;8.916;2023-05-29T15:43:03;19.10;99.90
6843;DHT22;3460;52.028;8.916;2023-05-29T15:45:30;18.90;99.90
6843;DHT22;3460;52.028;8.916;2023-05-29T15:47:58;18.80;99.90
6843;DHT22;3460;52.028;8.916;2023-05-29T15:50:25;18.70;99.90
6843;DHT22;3460;52.028;8.916;2023-05-29T15:52:52;18.70;99.90
6843;DHT22;3460;52.028;8.916;2023-05-29T15:55:19;18.80;99.90
6843;DHT22;3460;52.028;8.916;2023-05-29T15:57:46;19.00;99.90
6843;DHT22;3460;52.028;8.916;2023-05-29T16:00:15;19.00;99.90
6843;DHT22;3460;52.028;8.916;2023-05-29T16:02:42;19.00;99.90
6843;DHT22;3460;52.028;8.916;2023-05-29T16:05:10;19.00;99.90
6843;DHT22;3460;52.028;8.916;2023-05-29T16:07:38;18.90;99.90
6843;DHT22;3460;52.028;8.916;2023-05-29T16:10:05;18.80;99.90